Terminal Aerodrome Forecast
Issued by NWS

Home | Current Version | Previous Version | Text Only | Print | Product List | Glossary On
Versions: 1 2 3 4 5 6 7 8 9 10 11 12 13 14 15 16 17 18
000
FTUS42 TJSJ 171100 CCA
TAFNCM
TAF COR
TNCM 171149Z 1712/1812 08010KT P6SM VCSH SCT019 BKN040
      TEMPO 1712/1714 5SM -SHRA BKN019
     FM171430 12016KT P6SM SCT022 SCT050
     FM172200 09012KT P6SM FEW018 SCT050=

USA.gov is the U.S. government's official web portal to all federal, state and local government web resources and services.